Time;durP1;ratioP1;P1;durP2;ratioP2;P2;SDS_P1;SDS_P2;PMS_P1;PMS_P2;Temp;Humidity;BMP_temperature;BMP_pressure;BME280_temperature;BME280_humidity;BME280_pressure;Samples;Min_cycle;Max_cycle;Signal;HPM_P1;HPM_P2
2024/02/15 00:01:26;;;;;;;8.70;8.10;;;;;;;12.51;100.00;100386.97;5024968;28;20214;-78
2024/02/15 00:03:53;;;;;;;8.37;7.77;;;;;;;12.63;100.00;100390.16;5021756;28;20257;-77
2024/02/15 00:06:20;;;;;;;7.93;7.43;;;;;;;12.71;100.00;100396.88;5027301;28;20231;-77
2024/02/15 00:08:50;;;;;;;7.40;6.90;;;;;;;12.73;100.00;100416.94;5026984;28;20211;-78
2024/02/15 00:11:18;;;;;;;6.60;6.20;;;;;;;12.57;100.00;100414.75;5030284;28;20206;-78
2024/02/15 00:13:45;;;;;;;8.40;7.70;;;;;;;12.49;100.00;100401.00;5029565;28;20257;-78
2024/02/15 00:16:14;;;;;;;8.33;7.73;;;;;;;12.44;100.00;100384.56;5027693;28;20226;-78
2024/02/15 00:18:41;;;;;;;9.10;8.40;;;;;;;12.60;100.00;100382.38;5030778;28;20664;-75
2024/02/15 00:21:07;;;;;;;8.57;7.97;;;;;;;12.66;100.00;100396.13;5032197;28;20214;-78
2024/02/15 00:23:34;;;;;;;9.63;8.93;;;;;;;12.71;100.00;100404.72;5027848;28;20198;-78
2024/02/15 00:26:01;;;;;;;9.33;8.63;;;;;;;12.72;100.00;100400.34;5030109;28;20226;-78
2024/02/15 00:28:28;;;;;;;9.07;8.37;;;;;;;12.56;100.00;100399.91;5033467;28;20576;-78
2024/02/15 00:30:54;;;;;;;9.07;8.23;;;;;;;12.46;100.00;100386.22;5033615;28;20280;-78
2024/02/15 00:33:20;;;;;;;8.40;7.80;;;;;;;12.41;100.00;100371.56;5032423;28;20225;-78
2024/02/15 00:35:51;;;;;;;8.83;8.07;;;;;;;12.43;100.00;100364.53;5034096;28;20236;-78
2024/02/15 00:38:17;;;;;;;8.07;7.47;;;;;;;12.39;100.00;100368.97;5032514;28;20200;-77
2024/02/15 00:40:45;;;;;;;8.17;7.57;;;;;;;12.45;100.00;100362.72;5034500;28;20212;-78
2024/02/15 00:43:13;;;;;;;7.47;6.93;;;;;;;12.10;100.00;100344.44;5030829;28;20680;-78
2024/02/15 00:45:40;;;;;;;7.80;7.17;;;;;;;12.21;100.00;100327.59;5034790;28;20214;-76
2024/02/15 00:48:07;;;;;;;7.97;7.33;;;;;;;12.25;100.00;100327.47;5034894;28;20266;-77
2024/02/15 00:50:34;;;;;;;7.10;6.70;;;;;;;12.16;100.00;100322.50;5039092;28;20259;-77
2024/02/15 00:53:00;;;;;;;7.77;7.27;;;;;;;12.26;100.00;100323.94;5032503;28;20214;-77
2024/02/15 00:55:26;;;;;;;7.83;7.13;;;;;;;12.27;100.00;100323.06;5032130;28;20697;-77
2024/02/15 00:57:55;;;;;;;8.43;7.17;;;;;;;12.35;100.00;100321.97;5032302;28;20374;-78
2024/02/15 01:00:25;;;;;;;7.50;6.90;;;;;;;12.28;100.00;100318.69;5031802;28;20214;-77
2024/02/15 01:02:52;;;;;;;8.20;7.50;;;;;;;12.37;100.00;100323.66;5032606;28;20207;-78
2024/02/15 01:05:21;;;;;;;6.30;5.90;;;;;;;12.31;100.00;100344.78;5033105;28;20198;-78
2024/02/15 01:07:48;;;;;;;7.43;6.93;;;;;;;12.41;100.00;100340.16;5032530;28;20229;-77
2024/02/15 01:10:15;;;;;;;7.20;6.70;;;;;;;12.45;100.00;100349.63;5030006;28;20212;-77
2024/02/15 01:12:41;;;;;;;7.00;6.43;;;;;;;12.45;100.00;100341.78;5033038;28;20685;-78
2024/02/15 01:15:14;;;;;;;6.60;6.10;;;;;;;12.34;100.00;100338.59;5031250;28;20252;-77
2024/02/15 01:17:42;;;;;;;6.30;5.90;;;;;;;12.37;100.00;100335.88;5030526;28;20232;-78
2024/02/15 01:20:10;;;;;;;6.40;6.00;;;;;;;12.49;100.00;100340.78;5034369;28;20206;-78
2024/02/15 01:22:36;;;;;;;6.33;5.73;;;;;;;12.49;100.00;100352.13;5035648;28;20206;-78
2024/02/15 01:25:03;;;;;;;6.23;5.83;;;;;;;12.44;100.00;100354.00;5034360;28;20244;-77
2024/02/15 01:27:30;;;;;;;6.40;6.00;;;;;;;12.49;100.00;100352.13;5034032;28;20284;-77
2024/02/15 01:29:57;;;;;;;4.80;4.50;;;;;;;12.42;100.00;100349.72;5034909;28;20210;-79
2024/02/15 01:32:23;;;;;;;6.00;5.50;;;;;;;12.49;100.00;100359.13;5035357;28;20261;-78
2024/02/15 01:34:53;;;;;;;5.53;5.23;;;;;;;12.55;100.00;100364.19;5037362;28;20252;-78
2024/02/15 01:37:20;;;;;;;5.97;5.47;;;;;;;12.57;100.00;100372.00;5036796;28;20230;-78
2024/02/15 01:39:46;;;;;;;5.33;4.93;;;;;;;12.60;100.00;100377.97;5038318;28;20257;-78
2024/02/15 01:42:14;;;;;;;5.67;5.17;;;;;;;12.52;100.00;100377.34;5037272;28;20248;-78
2024/02/15 01:44:40;;;;;;;5.63;5.23;;;;;;;12.50;100.00;100374.75;5037088;28;20210;-77
2024/02/15 01:47:09;;;;;;;4.97;4.67;;;;;;;12.45;100.00;100374.03;5035389;28;20228;-79
2024/02/15 01:49:35;;;;;;;5.30;4.90;;;;;;;12.37;100.00;100347.22;5037123;28;20213;-78
2024/02/15 01:52:10;;;;;;;7.03;5.90;;;;;;;12.36;100.00;100337.63;5033476;28;20222;-76
2024/02/15 01:54:38;;;;;;;5.40;5.10;;;;;;;12.34;100.00;100342.06;5035067;28;20575;-78
2024/02/15 01:57:06;;;;;;;5.70;5.17;;;;;;;12.40;100.00;100341.88;5032719;28;21515;-77
2024/02/15 01:59:33;;;;;;;5.30;4.90;;;;;;;12.35;100.00;100338.56;5029123;28;20207;-78
2024/02/15 02:01:59;;;;;;;5.83;5.43;;;;;;;12.53;100.00;100334.56;5034003;28;20214;-78
2024/02/15 02:04:25;;;;;;;4.87;4.57;;;;;;;12.53;100.00;100352.88;5034715;28;20205;-78
2024/02/15 02:06:55;;;;;;;5.30;4.90;;;;;;;12.56;100.00;100354.56;5033122;28;20238;-77
2024/02/15 02:09:23;;;;;;;6.43;4.70;;;;;;;12.52;100.00;100357.25;5033733;28;20218;-76
2024/02/15 02:11:50;;;;;;;4.13;3.83;;;;;;;12.40;100.00;100356.75;5034087;28;20256;-78
2024/02/15 02:14:18;;;;;;;4.73;4.43;;;;;;;12.51;100.00;100346.84;5034717;28;20205;-77
2024/02/15 02:16:46;;;;;;;4.90;4.60;;;;;;;12.56;100.00;100355.41;5033627;28;20226;-78
2024/02/15 02:19:13;;;;;;;4.00;3.80;;;;;;;12.42;100.00;100354.94;5032307;28;20217;-78
2024/02/15 02:21:40;;;;;;;3.80;3.57;;;;;;;12.39;100.00;100352.41;5034220;28;20210;-78
2024/02/15 02:24:13;;;;;;;3.93;3.63;;;;;;;12.25;100.00;100358.88;5034058;28;20237;-78
2024/02/15 02:26:41;;;;;;;4.30;4.00;;;;;;;12.37;100.00;100351.59;5033371;28;20226;-78
2024/02/15 02:29:08;;;;;;;4.37;4.07;;;;;;;12.35;100.00;100354.28;5033714;28;20214;-78
2024/02/15 02:31:35;;;;;;;4.10;3.80;;;;;;;12.31;100.00;100345.63;5033826;28;20229;-78
2024/02/15 02:34:01;;;;;;;3.53;3.33;;;;;;;12.35;100.00;100353.38;5032196;28;20293;-78
2024/02/15 02:36:29;;;;;;;3.53;3.33;;;;;;;12.40;100.00;100339.28;5033248;28;20223;-78
2024/02/15 02:38:59;;;;;;;3.80;3.60;;;;;;;12.31;100.00;100331.69;5033367;28;20202;-78
2024/02/15 02:41:26;;;;;;;3.40;3.20;;;;;;;12.27;100.00;100325.69;5033909;28;20208;-78
2024/02/15 02:43:53;;;;;;;4.00;3.43;;;;;;;12.38;100.00;100332.38;5028668;28;20743;-78
2024/02/15 02:46:20;;;;;;;3.60;3.30;;;;;;;12.25;100.00;100343.19;5032754;28;20708;-77
2024/02/15 02:48:46;;;;;;;3.20;3.00;;;;;;;12.34;100.00;100341.22;5033026;28;20336;-78
2024/02/15 02:51:13;;;;;;;3.70;3.50;;;;;;;12.39;100.00;100345.44;5033344;28;20590;-78
2024/02/15 02:53:40;;;;;;;3.37;3.17;;;;;;;12.40;100.00;100348.91;5033449;28;20218;-78
2024/02/15 02:56:08;;;;;;;3.07;2.87;;;;;;;12.43;100.00;100348.81;5031917;28;20259;-78
2024/02/15 02:58:34;;;;;;;3.50;3.23;;;;;;;12.44;100.00;100345.28;5033522;28;20206;-75
2024/02/15 03:01:02;;;;;;;3.37;3.17;;;;;;;12.53;100.00;100350.28;5032865;28;20235;-77
2024/02/15 03:03:29;;;;;;;3.10;2.90;;;;;;;12.42;100.00;100368.88;5033424;28;20206;-78
2024/02/15 03:05:55;;;;;;;3.40;3.10;;;;;;;12.55;100.00;100365.91;5032294;28;20313;-77
2024/02/15 03:08:22;;;;;;;3.10;2.90;;;;;;;12.56;100.00;100357.16;5031864;28;20208;-78
2024/02/15 03:10:48;;;;;;;3.20;2.73;;;;;;;12.52;100.00;100367.72;5033679;28;20208;-78
2024/02/15 03:13:15;;;;;;;3.40;3.20;;;;;;;12.35;100.00;100356.00;5035179;28;20662;-78
2024/02/15 03:15:42;;;;;;;3.93;3.70;;;;;;;12.43;100.00;100335.72;5034279;28;20280;-78
2024/02/15 03:18:09;;;;;;;3.20;3.00;;;;;;;12.51;100.00;100341.59;5034709;28;20210;-76
2024/02/15 03:20:38;;;;;;;3.27;3.07;;;;;;;12.56;100.00;100355.41;5034174;28;20268;-77
2024/02/15 03:23:06;;;;;;;3.50;3.30;;;;;;;12.55;100.00;100345.84;5033846;28;20248;-78
2024/02/15 03:25:34;;;;;;;3.00;2.80;;;;;;;12.39;100.00;100348.03;5032336;28;20616;-78
2024/02/15 03:28:03;;;;;;;3.30;3.07;;;;;;;12.40;100.00;100341.03;5032694;28;20202;-78
2024/02/15 03:30:31;;;;;;;3.30;3.00;;;;;;;12.60;100.00;100340.47;5036078;28;20251;-78
2024/02/15 03:33:00;;;;;;;2.93;2.73;;;;;;;12.76;100.00;100367.06;5035401;28;20206;-78
2024/02/15 03:35:31;;;;;;;2.57;2.47;;;;;;;12.84;100.00;100393.91;5035871;28;20594;-78
2024/02/15 03:38:03;;;;;;;2.53;2.37;;;;;;;12.73;100.00;100402.06;5035984;28;20225;-78
2024/02/15 03:40:30;;;;;;;2.93;2.73;;;;;;;12.79;100.00;100406.28;5032447;28;20207;-78
2024/02/15 03:42:57;;;;;;;2.20;2.10;;;;;;;12.78;100.00;100401.94;5033872;28;20268;-78
2024/02/15 03:45:25;;;;;;;3.03;2.07;;;;;;;12.85;100.00;100411.34;5036337;28;20202;-78
2024/02/15 03:47:53;;;;;;;2.23;2.10;;;;;;;12.84;100.00;100420.97;5034893;28;20211;-78
2024/02/15 03:50:21;;;;;;;3.57;2.30;;;;;;;12.82;100.00;100429.75;5037108;28;20198;-78
2024/02/15 03:52:50;;;;;;;2.60;2.40;;;;;;;12.82;100.00;100422.75;5029079;28;20203;-78
2024/02/15 03:55:17;;;;;;;3.00;2.27;;;;;;;12.94;100.00;100431.16;5034890;28;20197;-78
2024/02/15 03:57:44;;;;;;;2.33;2.10;;;;;;;12.95;100.00;100443.38;5034352;28;20229;-78
2024/02/15 04:00:15;;;;;;;2.00;1.90;;;;;;;12.88;100.00;100461.00;5033350;28;20211;-78
2024/02/15 04:02:41;;;;;;;2.40;2.20;;;;;;;12.71;100.00;100449.25;5033277;28;20658;-79
2024/02/15 04:05:09;;;;;;;2.10;2.00;;;;;;;12.77;100.00;100423.81;5035676;28;20205;-78
2024/02/15 04:07:36;;;;;;;2.23;2.13;;;;;;;12.87;100.00;100430.50;5035705;28;20241;-78
2024/02/15 04:10:04;;;;;;;2.37;2.27;;;;;;;12.84;100.00;100443.66;5034968;28;20206;-79
2024/02/15 04:12:31;;;;;;;2.50;2.30;;;;;;;12.89;100.00;100442.63;5031328;28;20643;-78
2024/02/15 04:15:04;;;;;;;3.10;2.90;;;;;;;12.96;100.00;100448.56;5034202;28;20198;-76
2024/02/15 04:17:32;;;;;;;3.00;2.70;;;;;;;12.94;100.00;100455.59;5035537;28;20283;-79
2024/02/15 04:19:59;;;;;;;3.70;3.40;;;;;;;12.80;100.00;100463.00;5035911;28;20209;-76
2024/02/15 04:22:25;;;;;;;3.60;3.30;;;;;;;12.87;100.00;100440.97;5035234;28;20256;-78
2024/02/15 04:24:54;;;;;;;3.30;3.10;;;;;;;12.97;100.00;100449.44;5035823;28;20333;-79
2024/02/15 04:27:22;;;;;;;3.37;3.07;;;;;;;13.08;100.00;100465.69;5035543;28;20222;-79
2024/02/15 04:29:50;;;;;;;3.47;3.17;;;;;;;13.07;100.00;100474.47;5036487;28;20745;-78
2024/02/15 04:32:18;;;;;;;2.50;2.40;;;;;;;13.10;100.00;100483.09;5029455;28;20341;-78
2024/02/15 04:34:46;;;;;;;3.17;2.97;;;;;;;12.89;100.00;100489.81;5031344;28;20217;-78
2024/02/15 04:37:13;;;;;;;3.60;2.77;;;;;;;12.95;100.00;100480.91;5033196;28;20258;-78
2024/02/15 04:39:39;;;;;;;3.07;2.63;;;;;;;12.93;100.00;100459.13;5035623;28;20203;-78
2024/02/15 04:42:09;;;;;;;2.90;2.70;;;;;;;12.81;100.00;100443.78;5035599;28;20213;-79
2024/02/15 04:44:37;;;;;;;3.33;3.07;;;;;;;12.94;100.00;100446.88;5036108;28;20206;-75
2024/02/15 04:47:06;;;;;;;3.63;3.33;;;;;;;12.98;100.00;100453.75;5032445;28;20256;-79
2024/02/15 04:49:32;;;;;;;3.23;3.03;;;;;;;12.93;100.00;100453.03;5036261;28;20204;-78
2024/02/15 04:52:01;;;;;;;3.00;2.80;;;;;;;12.93;100.00;100450.44;5033195;28;20996;-78
2024/02/15 04:54:29;;;;;;;3.20;3.00;;;;;;;12.91;100.00;100458.31;5032713;28;20290;-78
2024/02/15 04:56:56;;;;;;;3.47;3.27;;;;;;;12.69;100.00;100434.50;5034472;28;20236;-79
2024/02/15 04:59:25;;;;;;;3.87;3.67;;;;;;;12.67;100.00;100429.28;5036018;28;20215;-78
2024/02/15 05:01:53;;;;;;;3.93;3.40;;;;;;;12.78;100.00;100418.50;5035252;28;20297;-78
2024/02/15 05:04:20;;;;;;;2.77;2.57;;;;;;;12.80;100.00;100426.31;5035056;28;20199;-78
2024/02/15 05:06:46;;;;;;;3.73;3.43;;;;;;;12.89;100.00;100436.56;5034289;28;20284;-76
2024/02/15 05:09:12;;;;;;;3.70;3.43;;;;;;;12.91;100.00;100445.22;5034956;28;20210;-78
2024/02/15 05:11:41;;;;;;;4.10;3.80;;;;;;;12.96;100.00;100447.69;5035603;28;20207;-79
2024/02/15 05:14:07;;;;;;;3.83;3.53;;;;;;;12.95;100.00;100457.34;5036651;28;20210;-79
2024/02/15 05:16:34;;;;;;;3.90;3.60;;;;;;;12.90;100.00;100454.84;5038108;28;20226;-78
2024/02/15 05:19:02;;;;;;;4.00;3.70;;;;;;;12.98;100.00;100457.22;5038579;28;20207;-78
2024/02/15 05:21:30;;;;;;;3.80;3.50;;;;;;;12.94;100.00;100460.84;5038684;28;20664;-78
2024/02/15 05:23:57;;;;;;;3.70;3.50;;;;;;;12.64;100.00;100455.56;5039296;28;20206;-78
2024/02/15 05:26:23;;;;;;;3.80;3.60;;;;;;;12.79;100.00;100435.94;5035781;28;20228;-78
2024/02/15 05:28:50;;;;;;;3.97;3.67;;;;;;;12.93;100.00;100446.03;5035929;28;20220;-77
2024/02/15 05:31:20;;;;;;;3.87;3.57;;;;;;;12.86;100.00;100453.22;5035206;28;20253;-78
2024/02/15 05:33:47;;;;;;;4.13;3.83;;;;;;;12.88;100.00;100448.81;5037239;28;20265;-79
2024/02/15 05:36:16;;;;;;;3.87;3.67;;;;;;;12.95;100.00;100444.22;5034965;28;20219;-78
2024/02/15 05:38:45;;;;;;;3.93;3.60;;;;;;;12.86;100.00;100445.38;5035675;28;20612;-78
2024/02/15 05:41:12;;;;;;;4.60;3.73;;;;;;;12.91;100.00;100443.44;5035933;28;20211;-78
2024/02/15 05:43:41;;;;;;;3.70;3.40;;;;;;;12.85;100.00;100446.25;5035487;28;20256;-78
2024/02/15 05:46:08;;;;;;;3.70;3.40;;;;;;;12.85;100.00;100442.78;5034853;28;20232;-78
2024/02/15 05:48:35;;;;;;;3.97;3.03;;;;;;;12.70;100.00;100438.81;5039120;28;20215;-76
2024/02/15 05:51:01;;;;;;;5.20;4.70;;;;;;;12.74;100.00;100419.50;5037378;28;20731;-78
2024/02/15 05:53:29;;;;;;;4.30;4.00;;;;;;;12.81;100.00;100431.53;5029896;28;20225;-78
2024/02/15 05:55:57;;;;;;;4.93;4.03;;;;;;;12.79;100.00;100429.88;5038288;28;20230;-78
2024/02/15 05:58:25;;;;;;;3.60;3.30;;;;;;;12.72;100.00;100442.25;5038404;28;20227;-78
2024/02/15 06:00:53;;;;;;;4.23;3.87;;;;;;;12.63;100.00;100442.53;5038513;28;20207;-76
2024/02/15 06:03:22;;;;;;;3.50;3.30;;;;;;;12.65;100.00;100441.56;5037725;28;20324;-78
2024/02/15 06:05:48;;;;;;;3.70;3.40;;;;;;;12.60;100.00;100446.06;5037502;28;20222;-77
2024/02/15 06:08:14;;;;;;;3.97;3.67;;;;;;;12.66;100.00;100443.28;5037964;28;20198;-78
2024/02/15 06:10:42;;;;;;;4.30;3.90;;;;;;;12.66;100.00;100445.03;5038451;28;20198;-78
2024/02/15 06:13:09;;;;;;;4.30;3.90;;;;;;;12.67;100.00;100439.78;5038196;28;20237;-79
2024/02/15 06:15:36;;;;;;;4.40;4.00;;;;;;;12.62;100.00;100435.56;5037160;28;20297;-78
2024/02/15 06:18:03;;;;;;;3.97;3.67;;;;;;;12.54;100.00;100433.13;5035436;28;20222;-77
2024/02/15 06:20:30;;;;;;;4.73;4.27;;;;;;;12.48;100.00;100413.22;5025686;28;20206;-77
2024/02/15 06:22:57;;;;;;;5.80;4.50;;;;;;;12.48;100.00;100407.13;5034227;28;20241;-77
2024/02/15 06:25:25;;;;;;;4.30;4.00;;;;;;;12.47;100.00;100405.44;5033270;28;20209;-79
2024/02/15 06:27:58;;;;;;;4.63;4.23;;;;;;;12.45;100.00;100405.47;5036351;28;20623;-79
2024/02/15 06:41:33;;;;;;;5.27;4.77;;;;;;;12.64;100.00;100391.84;5036884;28;20214;-79
2024/02/15 06:44:01;;;;;;;4.70;4.30;;;;;;;12.75;100.00;100409.91;5038000;28;20213;-78
2024/02/15 06:46:27;;;;;;;4.47;4.07;;;;;;;12.81;100.00;100434.16;5034425;28;20234;-79
2024/02/15 06:48:54;;;;;;;6.47;4.47;;;;;;;12.75;100.00;100442.19;5035300;28;20210;-80
2024/02/15 06:51:21;;;;;;;5.27;4.73;;;;;;;12.80;100.00;100455.13;5028094;28;20215;-79
2024/02/15 06:53:47;;;;;;;6.43;5.07;;;;;;;12.81;100.00;100467.34;5034591;28;20198;-79
2024/02/15 06:56:13;;;;;;;7.40;6.37;;;;;;;12.80;100.00;100463.00;5033887;28;20226;-78
2024/02/15 06:58:41;;;;;;;6.50;5.87;;;;;;;12.90;100.00;100483.66;5033925;28;20271;-78
2024/02/15 07:01:09;;;;;;;5.87;5.47;;;;;;;12.96;100.00;100477.38;5032690;28;20676;-77
2024/02/15 07:03:35;;;;;;;5.77;5.33;;;;;;;13.01;100.00;100487.75;5027476;28;20210;-78
2024/02/15 07:06:02;;;;;;;5.70;5.30;;;;;;;13.04;100.00;100500.75;5033520;28;20230;-79
2024/02/15 07:08:29;;;;;;;5.57;4.73;;;;;;;13.02;100.00;100506.06;5030084;28;20236;-79
2024/02/15 07:10:56;;;;;;;5.73;5.23;;;;;;;13.03;100.00;100501.66;5034536;28;20333;-78
2024/02/15 07:13:22;;;;;;;7.50;5.50;;;;;;;13.04;100.00;100506.88;5037209;28;20202;-79
2024/02/15 07:15:48;;;;;;;7.10;5.03;;;;;;;13.07;100.00;100505.91;5034815;28;20226;-78
2024/02/15 07:18:18;;;;;;;5.20;4.73;;;;;;;13.07;100.00;100505.91;5031948;28;20835;-77
2024/02/15 07:20:46;;;;;;;5.10;4.70;;;;;;;13.04;100.00;100504.25;5027938;28;20208;-77
2024/02/15 07:23:12;;;;;;;4.90;4.50;;;;;;;13.06;100.00;100510.31;5036212;28;20256;-78
2024/02/15 07:25:39;;;;;;;5.30;4.80;;;;;;;13.15;100.00;100516.19;5032687;28;20211;-79
2024/02/15 07:28:06;;;;;;;5.23;4.83;;;;;;;13.09;100.00;100519.84;5035704;28;20297;-79
2024/02/15 07:30:33;;;;;;;5.87;5.27;;;;;;;13.13;100.00;100512.75;5035180;28;20297;-81
2024/02/15 07:32:59;;;;;;;5.20;4.80;;;;;;;13.16;100.00;100505.66;5033436;28;20209;-78
2024/02/15 07:35:28;;;;;;;5.10;4.47;;;;;;;13.22;100.00;100504.59;5028491;28;20199;-78
2024/02/15 07:37:58;;;;;;;5.50;4.37;;;;;;;13.28;100.00;100512.31;5033207;28;20226;-78
2024/02/15 07:40:28;;;;;;;4.60;4.20;;;;;;;13.28;100.00;100513.16;5032847;28;20207;-77
2024/02/15 07:42:56;;;;;;;5.13;4.00;;;;;;;13.27;100.00;100514.06;5033093;28;20276;-77
2024/02/15 07:45:22;;;;;;;5.40;4.07;;;;;;;13.31;100.00;100507.84;5030961;28;20238;-77
2024/02/15 07:47:49;;;;;;;3.47;3.27;;;;;;;13.29;100.00;100512.28;5031787;28;20225;-78
2024/02/15 07:50:19;;;;;;;4.67;3.40;;;;;;;13.07;100.00;100529.50;5033022;28;20210;-77
2024/02/15 07:52:47;;;;;;;6.43;3.70;;;;;;;13.23;100.00;100511.56;5032870;28;20202;-78
2024/02/15 07:55:14;;;;;;;2.83;2.50;;;;;;;13.00;100.00;100514.84;5031834;28;20209;-77
2024/02/15 07:57:40;;;;;;;4.32;3.15;;;;;;;13.33;100.00;100497.31;5031269;28;20475;-78
2024/02/15 08:00:10;;;;;;;2.40;2.20;;;;;;;13.41;100.00;100512.84;5032641;28;20238;-78
2024/02/15 08:02:37;;;;;;;2.97;2.23;;;;;;;13.51;100.00;100530.00;5032397;28;20209;-78
2024/02/15 08:05:05;;;;;;;2.53;2.33;;;;;;;13.55;100.00;100544.75;5032814;28;20212;-77
2024/02/15 08:07:34;;;;;;;4.17;2.23;;;;;;;13.50;100.00;100554.53;5024093;28;20234;-78
2024/02/15 08:10:03;;;;;;;2.00;1.83;;;;;;;13.53;100.00;100551.81;5033429;28;20215;-78
2024/02/15 08:12:30;;;;;;;2.60;2.40;;;;;;;13.56;100.00;100563.97;5033065;28;20206;-78
2024/02/15 08:14:58;;;;;;;2.70;2.40;;;;;;;13.34;100.00;100556.75;5027244;28;20218;-77
2024/02/15 08:17:25;;;;;;;4.50;2.57;;;;;;;13.42;100.00;100540.75;5032140;28;20706;-78
2024/02/15 08:19:51;;;;;;;3.10;2.57;;;;;;;13.43;100.00;100545.13;5034568;28;20734;-78
2024/02/15 08:22:23;;;;;;;3.63;2.20;;;;;;;13.52;100.00;100552.72;5033010;28;20400;-78
2024/02/15 08:24:49;;;;;;;2.37;2.17;;;;;;;13.41;100.00;100568.75;5032639;28;20258;-78
2024/02/15 08:27:17;;;;;;;3.03;2.50;;;;;;;13.52;100.00;100560.59;5033203;28;20637;-78
2024/02/15 08:29:44;;;;;;;2.53;1.90;;;;;;;13.59;100.00;100564.72;5033072;28;20672;-78
2024/02/15 08:32:11;;;;;;;3.50;2.00;;;;;;;13.56;100.00;100577.97;5032044;28;20827;-78
2024/02/15 08:34:37;;;;;;;3.30;2.00;;;;;;;13.47;100.00;100572.97;5028847;28;20215;-78
2024/02/15 08:37:04;;;;;;;2.00;1.80;;;;;;;13.54;100.00;100563.16;5031773;28;20292;-78
2024/02/15 08:39:31;;;;;;;3.63;1.80;;;;;;;13.53;100.00;100570.16;5032182;28;20229;-77
2024/02/15 08:41:58;;;;;;;1.87;1.70;;;;;;;13.60;100.00;100566.47;5032408;28;20300;-78
2024/02/15 08:44:26;;;;;;;2.17;1.70;;;;;;;13.50;100.00;100575.50;5032941;28;20211;-78
2024/02/15 08:46:52;;;;;;;2.70;1.67;;;;;;;13.49;100.00;100560.66;5032577;28;20224;-77
2024/02/15 08:49:19;;;;;;;2.13;1.73;;;;;;;13.45;100.00;100541.53;5036469;28;20238;-78
2024/02/15 08:51:45;;;;;;;2.53;1.53;;;;;;;13.60;100.00;100521.88;5037012;28;20294;-78
2024/02/15 08:54:11;;;;;;;1.90;1.60;;;;;;;13.72;100.00;100520.66;5035925;28;20894;-78
2024/02/15 08:56:38;;;;;;;2.60;1.50;;;;;;;13.69;100.00;100536.47;5036135;28;20744;-78
2024/02/15 08:59:04;;;;;;;1.60;1.50;;;;;;;13.57;100.00;100547.34;5036500;28;20783;-78
2024/02/15 09:01:33;;;;;;;1.60;1.50;;;;;;;13.70;100.00;100538.19;5036304;28;20256;-77
2024/02/15 09:04:00;;;;;;;3.17;1.87;;;;;;;13.70;100.00;100570.53;5037004;28;20273;-77
2024/02/15 09:06:27;;;;;;;2.83;1.90;;;;;;;13.70;99.31;100582.81;5036272;28;20235;-79
2024/02/15 09:08:53;;;;;;;2.40;2.03;;;;;;;13.88;98.79;100597.13;5048966;28;20203;-78
2024/02/15 09:11:19;;;;;;;1.90;1.80;;;;;;;13.94;98.14;100617.09;5036806;28;20206;-78
2024/02/15 09:13:46;;;;;;;4.03;1.37;;;;;;;13.83;97.62;100620.84;5035832;28;20206;-77
2024/02/15 09:16:13;;;;;;;2.33;1.57;;;;;;;13.95;97.49;100637.16;5035517;28;20223;-78
2024/02/15 09:18:45;;;;;;;1.50;1.40;;;;;;;13.94;96.47;100644.19;5037956;28;20222;-80
2024/02/15 09:21:11;;;;;;;2.53;1.60;;;;;;;14.02;96.61;100641.34;5037915;28;20583;-78
2024/02/15 09:23:38;;;;;;;1.90;1.50;;;;;;;14.02;96.46;100649.22;5037180;28;20219;-78
2024/02/15 09:26:05;;;;;;;3.03;1.40;;;;;;;14.00;96.59;100657.13;5036853;28;20220;-78
2024/02/15 09:28:32;;;;;;;2.40;1.50;;;;;;;13.87;96.42;100669.75;5036713;28;20235;-79
2024/02/15 09:30:59;;;;;;;2.60;1.17;;;;;;;14.01;96.05;100665.84;5036195;28;20218;-79
2024/02/15 09:33:25;;;;;;;3.57;1.60;;;;;;;13.92;96.58;100672.22;5035778;28;20210;-78
2024/02/15 09:35:55;;;;;;;1.63;1.50;;;;;;;14.08;96.12;100662.16;5020718;28;20231;-79
2024/02/15 09:38:21;;;;;;;2.27;1.60;;;;;;;14.13;94.60;100677.75;5027050;28;20723;-79
2024/02/15 09:40:49;;;;;;;2.67;1.70;;;;;;;14.03;94.80;100693.78;5036753;28;20684;-79
2024/02/15 09:43:16;;;;;;;2.90;2.00;;;;;;;13.95;95.95;100677.38;5036906;28;20203;-78
2024/02/15 09:45:43;;;;;;;1.60;1.50;;;;;;;13.80;96.89;100672.59;5054331;28;20220;-78
2024/02/15 09:48:12;;;;;;;2.07;1.70;;;;;;;13.92;96.59;100658.25;5035326;28;20269;-78
2024/02/15 09:50:42;;;;;;;1.97;1.50;;;;;;;13.99;95.72;100670.28;5021689;28;20555;-78
2024/02/15 09:53:10;;;;;;;3.20;2.00;;;;;;;13.97;96.15;100666.84;5020044;28;20217;-78
2024/02/15 09:55:36;;;;;;;1.53;1.40;;;;;;;14.01;95.22;100678.97;5034007;28;20200;-78
2024/02/15 09:58:05;;;;;;;1.50;1.40;;;;;;;13.99;95.73;100673.75;5035246;28;20235;-78
2024/02/15 10:00:33;;;;;;;1.93;1.70;;;;;;;13.92;96.13;100666.97;5040189;28;20213;-77
2024/02/15 10:03:02;;;;;;;2.23;1.47;;;;;;;13.88;95.67;100666.22;5048751;28;20193;-78
2024/02/15 10:05:28;;;;;;;2.10;1.60;;;;;;;14.20;94.79;100676.66;5033675;28;20268;-77
2024/02/15 10:07:55;;;;;;;1.73;1.63;;;;;;;14.08;92.32;100726.00;5017400;28;20320;-79
2024/02/15 10:10:25;;;;;;;1.50;1.40;;;;;;;13.88;92.68;100738.84;5014897;28;20206;-78
2024/02/15 10:12:54;;;;;;;2.33;1.70;;;;;;;13.68;94.53;100737.63;5015985;28;20248;-78
2024/02/15 10:15:35;;;;;;;1.73;1.60;;;;;;;13.86;95.50;100704.75;5014472;28;20300;-79
2024/02/15 10:18:03;;;;;;;1.60;1.40;;;;;;;13.80;94.74;100718.06;5014876;28;20227;-77
2024/02/15 10:20:29;;;;;;;3.13;1.43;;;;;;;14.13;93.59;100730.25;5015229;28;20198;-77
2024/02/15 10:23:10;;;;;;;1.60;1.50;;;;;;;14.19;92.81;100741.47;5019355;28;20688;-80
2024/02/15 10:25:38;;;;;;;2.80;1.73;;;;;;;14.34;93.15;100736.66;5034530;28;20889;-80
2024/02/15 10:28:06;;;;;;;2.90;1.80;;;;;;;14.39;92.93;100743.50;5035713;28;20345;-79
2024/02/15 10:30:34;;;;;;;1.80;1.63;;;;;;;14.00;91.06;100774.38;5034188;28;20268;-80
2024/02/15 10:33:06;;;;;;;2.60;1.40;;;;;;;14.28;91.25;100775.31;5036028;28;20212;-79
2024/02/15 10:35:34;;;;;;;3.30;1.70;;;;;;;14.40;91.15;100778.47;5030241;28;20227;-78
2024/02/15 10:38:09;;;;;;;2.07;1.50;;;;;;;14.43;91.46;100779.25;5014920;28;20691;-80
2024/02/15 10:40:36;;;;;;;1.50;1.40;;;;;;;14.42;92.49;100764.41;5028918;28;20583;-78
2024/02/15 10:43:05;;;;;;;2.93;1.33;;;;;;;14.48;93.00;100747.59;5035168;28;20253;-80
2024/02/15 10:45:33;;;;;;;2.23;1.77;;;;;;;14.48;93.52;100735.31;5031070;28;20206;-80
2024/02/15 10:47:59;;;;;;;1.77;1.53;;;;;;;14.36;94.46;100719.94;5016543;28;20212;-78
2024/02/15 10:50:26;;;;;;;3.22;2.20;;;;;;;14.34;95.93;100694.63;5027309;28;20437;-78
2024/02/15 10:52:55;;;;;;;2.80;2.17;;;;;;;14.36;96.54;100663.94;5033684;28;20290;-79
2024/02/15 10:55:38;;;;;;;2.47;1.57;;;;;;;14.39;96.26;100653.31;5034398;28;20253;-77
2024/02/15 10:58:10;;;;;;;4.30;1.90;;;;;;;14.44;95.91;100648.78;5020405;28;20203;-79
2024/02/15 11:00:39;;;;;;;2.33;1.80;;;;;;;14.42;96.42;100643.56;5034686;28;20209;-78
2024/02/15 11:03:08;;;;;;;3.77;2.20;;;;;;;14.36;96.49;100632.41;5033621;28;20211;-79
2024/02/15 11:05:37;;;;;;;4.10;2.03;;;;;;;14.35;96.35;100622.81;5032640;28;20710;-77
2024/02/15 11:08:06;;;;;;;2.77;2.30;;;;;;;14.35;96.80;100604.44;5018217;28;20209;-78
2024/02/15 11:10:34;;;;;;;2.23;2.00;;;;;;;14.32;97.10;100605.38;5016423;28;20674;-79
2024/02/15 11:13:01;;;;;;;1.70;1.60;;;;;;;14.46;96.71;100611.06;5015200;28;20269;-79
2024/02/15 11:15:42;;;;;;;2.27;1.70;;;;;;;14.50;96.03;100611.81;5012508;28;20682;-77
2024/02/15 11:18:08;;;;;;;2.67;1.50;;;;;;;14.25;95.32;100620.50;5012819;28;20219;-78
2024/02/15 11:20:52;;;;;;;1.70;1.60;;;;;;;14.38;95.87;100626.19;5013787;28;20697;-78
2024/02/15 11:23:27;;;;;;;1.77;1.50;;;;;;;14.44;96.04;100622.53;5020850;28;20315;-77
2024/02/15 11:25:53;;;;;;;2.53;1.80;;;;;;;14.52;96.26;100614.41;5032236;28;20313;-76
2024/02/15 11:28:40;;;;;;;1.60;1.40;;;;;;;14.44;95.07;100627.78;5032498;28;20690;-77
2024/02/15 11:31:13;;;;;;;3.13;1.40;;;;;;;14.46;95.47;100628.59;5033929;28;20213;-78
2024/02/15 11:33:39;;;;;;;2.70;1.70;;;;;;;14.56;95.65;100626.53;5034655;28;20298;-77